createdAt,value
2019-03-29T00:01:51.270Z,96338.62
2019-03-29T00:04:21.119Z,96340.46
2019-03-29T00:06:51.035Z,96347.63
2019-03-29T00:09:21.035Z,96336.70
2019-03-29T00:11:50.935Z,96341.19
2019-03-29T00:14:23.442Z,96338.27
2019-03-29T00:16:52.435Z,96351.00
2019-03-29T00:19:22.322Z,96351.47
2019-03-29T00:21:52.264Z,96348.53
2019-03-29T00:24:22.155Z,96359.41
2019-03-29T00:26:52.561Z,96362.52
2019-03-29T00:29:23.081Z,96360.23
2019-03-29T00:31:53.002Z,96362.17
2019-03-29T00:34:23.010Z,96361.12
2019-03-29T00:36:53.099Z,96357.11
2019-03-29T00:39:23.054Z,96361.19
2019-03-29T00:41:53.045Z,96354.50
2019-03-29T00:44:23.054Z,96360.91
2019-03-29T00:46:53.236Z,96359.22
2019-03-29T00:49:23.097Z,96356.27
2019-03-29T00:51:52.971Z,96356.66
2019-03-29T00:54:22.884Z,96361.08
2019-03-29T00:56:52.859Z,96351.70
2019-03-29T00:59:22.775Z,96349.86
2019-03-29T01:01:53.105Z,96344.57
2019-03-29T01:04:23.171Z,96343.12
2019-03-29T01:06:53.022Z,96343.67
2019-03-29T01:09:22.911Z,96347.70
2019-03-29T01:11:52.793Z,96342.59
2019-03-29T01:14:22.741Z,96343.55
2019-03-29T01:16:53.873Z,96335.61
2019-03-29T01:19:23.795Z,96334.06
2019-03-29T01:21:53.860Z,96331.33
2019-03-29T01:24:23.785Z,96327.72
2019-03-29T01:26:53.686Z,96328.66
2019-03-29T01:29:23.617Z,96332.58
2019-03-29T01:31:53.557Z,96332.38
2019-03-29T01:34:23.470Z,96330.70
2019-03-29T01:36:53.894Z,96330.91
2019-03-29T01:39:24.308Z,96333.76
2019-03-29T01:41:54.220Z,96335.28
2019-03-29T01:44:24.110Z,96337.59
2019-03-29T01:46:54.085Z,96330.27
2019-03-29T01:49:23.966Z,96332.33
2019-03-29T01:51:54.048Z,96333.37
2019-03-29T01:54:24.227Z,96335.22
2019-03-29T01:56:54.325Z,96335.66
2019-03-29T01:59:24.262Z,96333.48
2019-03-29T02:01:54.954Z,96332.16
2019-03-29T02:04:25.210Z,96336.89
2019-03-29T02:06:55.196Z,96332.12
2019-03-29T02:09:25.164Z,96338.89
2019-03-29T02:11:55.062Z,96328.34
2019-03-29T02:14:24.971Z,96331.55
2019-03-29T02:16:55.889Z,96333.77
2019-03-29T02:19:25.970Z,96334.35
2019-03-29T02:21:55.990Z,96343.95
2019-03-29T02:24:25.901Z,96339.52
2019-03-29T02:26:55.814Z,96340.36
2019-03-29T02:29:25.769Z,96344.52
2019-03-29T02:31:57.037Z,96345.42
2019-03-29T02:34:27.055Z,96341.22
2019-03-29T02:36:57.132Z,96342.81
2019-03-29T02:39:27.398Z,96337.78
2019-03-29T02:41:57.451Z,96349.70
2019-03-29T02:44:27.365Z,96348.83
2019-03-29T02:46:57.226Z,96350.88
2019-03-29T02:49:27.184Z,96344.58
2019-03-29T02:51:57.106Z,96347.33
2019-03-29T02:54:27.010Z,96353.23
2019-03-29T02:56:56.878Z,96347.59
2019-03-29T02:59:26.780Z,96347.72
2019-03-29T03:01:57.214Z,96346.95
2019-03-29T03:04:27.152Z,96348.21
2019-03-29T03:06:57.990Z,96352.20
2019-03-29T03:09:27.923Z,96352.13
2019-03-29T03:11:57.811Z,96357.25
2019-03-29T03:14:27.764Z,96353.88
2019-03-29T03:16:57.876Z,96356.31
2019-03-29T03:19:27.823Z,96356.34
2019-03-29T03:21:57.751Z,96363.99
2019-03-29T03:24:28.086Z,96350.09
2019-03-29T03:26:57.937Z,96358.28
2019-03-29T03:29:28.001Z,96365.39
2019-03-29T03:31:57.888Z,96360.63
2019-03-29T03:34:28.144Z,96357.61
2019-03-29T03:36:58.599Z,96356.38
2019-03-29T03:39:32.402Z,96355.41
2019-03-29T03:42:00.435Z,96357.03
2019-03-29T03:44:30.333Z,96360.53
2019-03-29T03:47:00.277Z,96357.06
2019-03-29T03:49:30.204Z,96365.03
2019-03-29T03:52:00.244Z,96371.80
2019-03-29T03:54:30.130Z,96362.02
2019-03-29T03:57:00.783Z,96363.22
2019-03-29T03:59:31.525Z,96367.85
2019-03-29T04:02:01.424Z,96364.67
2019-03-29T04:04:31.353Z,96369.20
2019-03-29T04:07:01.265Z,96368.05
2019-03-29T04:09:48.532Z,96375.11
2019-03-29T04:12:03.988Z,96383.52
2019-03-29T04:14:34.004Z,96385.89
2019-03-29T04:17:04.203Z,96379.02
2019-03-29T04:19:34.284Z,96377.80
2019-03-29T04:22:04.196Z,96379.03
2019-03-29T04:24:34.512Z,96380.63
2019-03-29T04:27:04.518Z,96387.43
2019-03-29T04:29:34.417Z,96388.92
2019-03-29T04:32:04.332Z,96382.53
2019-03-29T04:34:34.259Z,96382.53
2019-03-29T04:37:04.183Z,96382.79
2019-03-29T04:39:34.091Z,96386.79
2019-03-29T04:42:03.985Z,96379.33
2019-03-29T04:44:33.893Z,96381.86
2019-03-29T04:47:03.789Z,96387.54
2019-03-29T04:49:33.732Z,96387.00
2019-03-29T04:52:03.630Z,96389.25
2019-03-29T04:54:33.553Z,96390.14
2019-03-29T04:57:03.483Z,96385.49
2019-03-29T04:59:33.402Z,96386.47
2019-03-29T05:02:03.429Z,96386.47
2019-03-29T05:04:33.331Z,96391.22
2019-03-29T05:07:03.235Z,96396.61
2019-03-29T05:09:33.147Z,96396.13
2019-03-29T05:12:03.147Z,96392.21
2019-03-29T05:14:33.094Z,96392.50
2019-03-29T05:17:03.207Z,96393.30
2019-03-29T05:19:34.115Z,96403.97
2019-03-29T05:22:04.049Z,96396.74
2019-03-29T05:24:33.961Z,96391.59
2019-03-29T05:27:03.875Z,96395.63
2019-03-29T05:29:33.785Z,96397.17
2019-03-29T05:32:03.670Z,96398.07
2019-03-29T05:34:33.575Z,96400.88
2019-03-29T05:37:03.490Z,96404.06
2019-03-29T05:39:33.401Z,96402.41
2019-03-29T05:42:03.332Z,96401.49
2019-03-29T05:44:33.228Z,96395.20
2019-03-29T05:47:03.168Z,96402.64
2019-03-29T05:49:33.095Z,96401.83
2019-03-29T05:52:02.997Z,96398.94
2019-03-29T05:54:33.066Z,96398.81
2019-03-29T05:57:02.940Z,96400.89
2019-03-29T05:59:32.858Z,96408.61
2019-03-29T06:02:02.761Z,96413.45
2019-03-29T06:04:32.660Z,96416.66
2019-03-29T06:07:02.616Z,96411.14
2019-03-29T06:09:34.954Z,96417.38
2019-03-29T06:12:06.432Z,96422.72
2019-03-29T06:14:36.351Z,96423.50
2019-03-29T06:17:06.279Z,96420.52
2019-03-29T06:19:36.287Z,96421.16
2019-03-29T06:22:06.253Z,96419.44
2019-03-29T06:24:36.128Z,96420.00
2019-03-29T06:27:06.040Z,96419.83
2019-03-29T06:29:35.957Z,96422.86
2019-03-29T06:32:05.856Z,96410.26
2019-03-29T06:34:35.982Z,96409.73
2019-03-29T06:37:06.421Z,96419.84
2019-03-29T06:39:38.212Z,96414.16
2019-03-29T06:42:08.143Z,96414.22
2019-03-29T06:44:38.057Z,96406.50
2019-03-29T06:47:08.120Z,96407.23
2019-03-29T06:49:38.017Z,96403.08
2019-03-29T06:52:07.966Z,96402.37
2019-03-29T06:54:39.247Z,96400.08
2019-03-29T06:57:09.237Z,96400.39
2019-03-29T06:59:39.375Z,96396.28
2019-03-29T07:02:09.295Z,96392.41
2019-03-29T07:04:39.183Z,96392.52
2019-03-29T07:07:09.361Z,96389.08
2019-03-29T07:09:39.250Z,96389.42
2019-03-29T07:12:09.548Z,96389.39
2019-03-29T07:14:39.827Z,96391.70
2019-03-29T07:17:10.390Z,96384.31
2019-03-29T07:19:40.727Z,96207.18
2019-03-29T07:22:10.961Z,96387.32
2019-03-29T07:24:41.003Z,96386.36
2019-03-29T07:27:11.523Z,96381.37
2019-03-29T07:29:41.445Z,96376.73
2019-03-29T07:32:11.360Z,96378.41
2019-03-29T07:34:41.343Z,96371.44
2019-03-29T07:37:11.254Z,96364.34
2019-03-29T07:39:41.222Z,96375.16
2019-03-29T07:42:11.238Z,96365.98
2019-03-29T07:44:41.363Z,96367.33
2019-03-29T07:47:12.691Z,96358.27
2019-03-29T07:49:42.831Z,96358.27
2019-03-29T07:52:12.743Z,96356.36
2019-03-29T07:54:42.698Z,96354.55
2019-03-29T07:57:12.630Z,96347.73
2019-03-29T07:59:42.533Z,96348.02
2019-03-29T08:02:12.416Z,96354.84
2019-03-29T08:04:42.370Z,96344.86
2019-03-29T08:07:26.298Z,96341.98
2019-03-29T08:09:43.977Z,96335.48
2019-03-29T08:12:14.375Z,96335.83
2019-03-29T08:14:44.279Z,96338.66
2019-03-29T08:17:14.257Z,96332.80
2019-03-29T08:19:44.174Z,96332.17
2019-03-29T08:22:14.263Z,96331.34
2019-03-29T08:24:44.156Z,96332.63
2019-03-29T08:27:14.082Z,96334.00
2019-03-29T08:29:44.260Z,96333.70
2019-03-29T08:32:14.178Z,96328.52
2019-03-29T08:34:44.079Z,96326.72
2019-03-29T08:37:13.950Z,96325.89
2019-03-29T08:39:43.867Z,96320.64
2019-03-29T08:42:13.889Z,96322.55
2019-03-29T08:44:43.780Z,96316.88
2019-03-29T08:47:13.694Z,96312.48
2019-03-29T08:49:43.679Z,96316.44
2019-03-29T08:52:13.558Z,96317.08
2019-03-29T08:54:43.521Z,96316.44
2019-03-29T08:57:13.466Z,96304.41
2019-03-29T08:59:43.362Z,96304.66
2019-03-29T09:02:13.892Z,96306.47
2019-03-29T09:04:44.265Z,96298.36
2019-03-29T09:07:14.328Z,96303.41
2019-03-29T09:09:46.451Z,96290.42
2019-03-29T09:12:16.287Z,96292.64
2019-03-29T09:14:46.219Z,96291.19
2019-03-29T09:17:16.107Z,96296.16
2019-03-29T09:19:46.110Z,96288.80
2019-03-29T09:22:16.033Z,96278.39
2019-03-29T09:24:46.019Z,96272.33
2019-03-29T09:27:16.057Z,96259.12
2019-03-29T09:29:46.196Z,96246.80
2019-03-29T09:32:16.226Z,96249.52
2019-03-29T09:34:46.284Z,96159.05
2019-03-29T09:37:16.681Z,96251.46
2019-03-29T09:39:46.657Z,96250.55
2019-03-29T09:42:28.250Z,96248.60
2019-03-29T09:44:48.276Z,96237.24
2019-03-29T09:47:18.351Z,96228.84
2019-03-29T09:49:49.469Z,96229.75
2019-03-29T09:52:19.828Z,96219.01
2019-03-29T09:54:49.753Z,96218.66
2019-03-29T09:57:19.628Z,96142.16
2019-03-29T09:59:49.629Z,96221.92
2019-03-29T10:02:20.098Z,96223.20
2019-03-29T10:04:51.063Z,96211.33
2019-03-29T10:07:21.066Z,96219.66
2019-03-29T10:09:51.029Z,96217.66
2019-03-29T10:12:21.147Z,96218.19
2019-03-29T10:14:51.099Z,96230.59
2019-03-29T10:17:20.981Z,96224.92
2019-03-29T10:19:50.914Z,96216.07
2019-03-29T10:22:20.955Z,96214.83
2019-03-29T10:24:50.876Z,96212.33
2019-03-29T10:27:20.758Z,96188.91
2019-03-29T10:29:51.493Z,96194.94
2019-03-29T10:32:22.977Z,96191.38
2019-03-29T10:34:53.215Z,96186.75
2019-03-29T10:37:24.103Z,96197.36
2019-03-29T10:39:55.298Z,96188.51
2019-03-29T10:42:25.520Z,96197.00
2019-03-29T10:44:55.539Z,96191.23
2019-03-29T10:47:42.030Z,96176.66
2019-03-29T10:49:57.226Z,96183.92
2019-03-29T10:52:27.127Z,96184.52
2019-03-29T10:54:57.001Z,96186.27
2019-03-29T10:57:26.907Z,96179.25
2019-03-29T10:59:56.765Z,96172.84
2019-03-29T11:02:26.694Z,96184.73
2019-03-29T11:04:56.655Z,96185.37
2019-03-29T11:07:26.569Z,96177.91
2019-03-29T11:09:56.989Z,96173.73
2019-03-29T11:12:27.051Z,96180.42
2019-03-29T11:14:56.932Z,96176.66
2019-03-29T11:17:26.980Z,96179.59
2019-03-29T11:19:56.913Z,96175.21
2019-03-29T11:22:26.852Z,96178.05
2019-03-29T11:24:56.806Z,96181.25
2019-03-29T11:27:26.689Z,96172.17
2019-03-29T11:29:56.883Z,96176.05
2019-03-29T11:32:26.739Z,96176.59
2019-03-29T11:34:56.751Z,96162.92
2019-03-29T11:37:26.843Z,96171.91
2019-03-29T11:39:56.866Z,96159.84
2019-03-29T11:42:27.951Z,96157.70
2019-03-29T11:44:57.857Z,96157.70
2019-03-29T11:47:27.841Z,96156.00
2019-03-29T11:49:57.764Z,96150.81
2019-03-29T11:52:27.812Z,96145.55
2019-03-29T11:54:57.752Z,96150.95
2019-03-29T11:57:27.979Z,96160.42
2019-03-29T11:59:57.984Z,96158.23
2019-03-29T12:02:31.476Z,96156.01
2019-03-29T12:05:00.346Z,96144.86
2019-03-29T12:07:30.691Z,96141.06
2019-03-29T12:10:01.216Z,96138.91
2019-03-29T12:12:31.306Z,96143.85
2019-03-29T12:15:01.272Z,96129.77
2019-03-29T12:17:31.519Z,96144.70
2019-03-29T12:20:01.452Z,96130.16
2019-03-29T12:22:31.436Z,96125.86
2019-03-29T12:25:01.423Z,96128.16
2019-03-29T12:27:31.387Z,96118.61
2019-03-29T12:30:01.483Z,96116.94
2019-03-29T12:32:31.422Z,96004.81
2019-03-29T12:35:01.430Z,96128.59
2019-03-29T12:37:31.301Z,96120.25
2019-03-29T12:40:01.227Z,96110.92
2019-03-29T12:42:31.174Z,96110.36
2019-03-29T12:45:01.104Z,96109.97
2019-03-29T12:47:31.094Z,96107.49
2019-03-29T12:50:01.022Z,96107.17
2019-03-29T12:52:30.879Z,96110.78
2019-03-29T12:55:00.798Z,96104.41
2019-03-29T12:57:30.757Z,96100.92
2019-03-29T13:00:00.814Z,96100.41
2019-03-29T13:02:34.264Z,96106.70
2019-03-29T13:05:02.419Z,96126.68
2019-03-29T13:07:32.318Z,96111.13
2019-03-29T13:10:02.238Z,96113.05
2019-03-29T13:12:32.422Z,96107.42
2019-03-29T13:15:02.527Z,96117.41
2019-03-29T13:17:32.457Z,96094.66
2019-03-29T13:20:02.366Z,96089.84
2019-03-29T13:22:34.706Z,96108.00
2019-03-29T13:25:07.199Z,96092.59
2019-03-29T13:27:35.805Z,96087.91
2019-03-29T13:30:07.116Z,96101.91
2019-03-29T13:32:36.988Z,96086.19
2019-03-29T13:35:07.528Z,96084.28
2019-03-29T13:37:37.411Z,96076.57
2019-03-29T13:40:09.411Z,96091.92
2019-03-29T13:42:39.280Z,96079.56
2019-03-29T13:45:10.415Z,96087.99
2019-03-29T13:47:40.385Z,96087.63
2019-03-29T13:50:10.912Z,96087.16
2019-03-29T13:52:40.834Z,96083.84
2019-03-29T13:55:12.822Z,96086.46
2019-03-29T13:57:42.782Z,96086.53
2019-03-29T14:00:13.163Z,96087.47
2019-03-29T14:02:43.654Z,96085.77
2019-03-29T14:05:13.655Z,96082.97
2019-03-29T14:07:43.729Z,96092.70
2019-03-29T14:10:14.722Z,96089.63
2019-03-29T14:12:44.589Z,96087.94
2019-03-29T14:15:15.593Z,96092.03
2019-03-29T14:17:45.511Z,96098.59
2019-03-29T14:20:21.625Z,96089.81
2019-03-29T14:22:51.647Z,96092.23
2019-03-29T14:25:21.504Z,96077.64
2019-03-29T14:27:51.346Z,96082.38
2019-03-29T14:30:21.264Z,96078.00
2019-03-29T14:32:51.135Z,96077.23
2019-03-29T14:35:21.009Z,96073.09
2019-03-29T14:37:50.893Z,96071.84
2019-03-29T14:40:22.311Z,96065.67
2019-03-29T14:42:52.199Z,96062.33
2019-03-29T14:45:22.154Z,96063.72
2019-03-29T14:47:52.079Z,96055.23
2019-03-29T14:50:22.011Z,96072.38
2019-03-29T14:52:51.941Z,96064.98
2019-03-29T14:55:21.907Z,96069.73
2019-03-29T14:57:51.813Z,96061.02
2019-03-29T15:00:43.941Z,96058.98
2019-03-29T15:03:14.334Z,96063.69
2019-03-29T15:05:44.356Z,96065.80
2019-03-29T15:08:14.445Z,96064.53
2019-03-29T15:10:45.957Z,96061.50
2019-03-29T15:13:16.080Z,96064.03
2019-03-29T15:15:45.977Z,96063.82
2019-03-29T15:18:15.927Z,96062.55
2019-03-29T15:20:53.171Z,96064.84
2019-03-29T15:23:17.577Z,96062.69
2019-03-29T15:25:47.777Z,96058.24
2019-03-29T15:28:17.687Z,96058.98
2019-03-29T15:30:47.815Z,96058.77
2019-03-29T15:33:17.823Z,96060.34
2019-03-29T15:35:48.052Z,96056.29
2019-03-29T15:38:17.924Z,96056.95
2019-03-29T15:40:47.827Z,96062.33
2019-03-29T15:43:17.799Z,96060.27
2019-03-29T15:45:48.201Z,96059.56
2019-03-29T15:48:18.130Z,96064.92
2019-03-29T15:50:48.137Z,96067.44
2019-03-29T15:53:18.082Z,96068.70
2019-03-29T15:55:48.009Z,96068.31
2019-03-29T15:58:17.910Z,96078.08
2019-03-29T16:00:48.051Z,96070.13
2019-03-29T16:03:17.961Z,96071.07
2019-03-29T16:05:48.636Z,96081.33
2019-03-29T16:08:18.654Z,96079.80
2019-03-29T16:10:48.550Z,96090.27
2019-03-29T16:13:18.673Z,96096.39
2019-03-29T16:15:49.011Z,96097.30
2019-03-29T16:18:18.948Z,96091.29
2019-03-29T16:20:48.873Z,96094.86
2019-03-29T16:23:18.847Z,96102.23
2019-03-29T16:25:48.829Z,96107.88
2019-03-29T16:28:18.754Z,96100.36
2019-03-29T16:30:50.273Z,96110.45
2019-03-29T16:33:20.187Z,96112.23
2019-03-29T16:35:50.117Z,96115.09
2019-03-29T16:38:20.034Z,96112.95
2019-03-29T16:40:49.975Z,96112.93
2019-03-29T16:43:19.907Z,96118.71
2019-03-29T16:45:49.890Z,96123.63
2019-03-29T16:48:19.782Z,96123.95
2019-03-29T16:50:49.782Z,96124.01
2019-03-29T16:53:19.672Z,96123.17
2019-03-29T16:55:49.593Z,96118.99
2019-03-29T16:58:19.882Z,96115.05
2019-03-29T17:00:49.758Z,96119.47
2019-03-29T17:03:19.717Z,96112.67
2019-03-29T17:05:49.694Z,96119.95
2019-03-29T17:08:19.602Z,96123.89
2019-03-29T17:10:49.528Z,96126.02
2019-03-29T17:13:19.420Z,95953.83
2019-03-29T17:16:01.222Z,96140.95
2019-03-29T17:18:29.137Z,96140.53
2019-03-29T17:20:52.642Z,96136.12
2019-03-29T17:23:23.002Z,96149.96
2019-03-29T17:25:53.010Z,96144.09
2019-03-29T17:28:22.950Z,96148.78
2019-03-29T17:30:58.954Z,96144.80
2019-03-29T17:33:29.312Z,96140.06
2019-03-29T17:35:59.358Z,96138.66
2019-03-29T17:38:29.805Z,96130.95
2019-03-29T17:40:59.714Z,96129.94
2019-03-29T17:43:29.749Z,96132.62
2019-03-29T17:45:59.705Z,96125.41
2019-03-29T17:48:29.738Z,96131.66
2019-03-29T17:51:01.047Z,96134.17
2019-03-29T17:53:31.033Z,96145.53
2019-03-29T17:56:00.939Z,96149.49
2019-03-29T17:58:30.886Z,96156.97
2019-03-29T18:01:01.087Z,96158.10
2019-03-29T18:03:30.956Z,96155.93
2019-03-29T18:06:00.873Z,96151.50
2019-03-29T18:08:30.844Z,96158.82
2019-03-29T18:11:00.991Z,96158.16
2019-03-29T18:13:31.017Z,96168.73
2019-03-29T18:16:00.944Z,96163.64
2019-03-29T18:18:30.842Z,96166.78
2019-03-29T18:21:00.780Z,96174.30
2019-03-29T18:23:30.691Z,96175.51
2019-03-29T18:26:00.592Z,96177.22
2019-03-29T18:28:30.483Z,96179.01
2019-03-29T18:31:00.981Z,96177.52
2019-03-29T18:33:31.160Z,96181.87
2019-03-29T18:36:01.159Z,96176.26
2019-03-29T18:38:32.929Z,96181.22
2019-03-29T18:41:03.017Z,96180.77
2019-03-29T18:43:33.093Z,96188.11
2019-03-29T18:46:03.135Z,96180.32
2019-03-29T18:48:33.089Z,96182.02
2019-03-29T18:51:03.204Z,96191.46
2019-03-29T18:53:33.290Z,96183.70
2019-03-29T18:56:03.227Z,96187.28
2019-03-29T18:58:33.599Z,96188.63
2019-03-29T19:01:03.571Z,96188.77
2019-03-29T19:03:33.603Z,96184.47
2019-03-29T19:06:03.694Z,96193.15
2019-03-29T19:08:33.636Z,96191.65
2019-03-29T19:11:03.574Z,96198.72
2019-03-29T19:13:33.535Z,96190.62
2019-03-29T19:16:03.927Z,96191.61
2019-03-29T19:18:34.272Z,96188.31
2019-03-29T19:21:05.891Z,96188.89
2019-03-29T19:23:35.802Z,96200.75
2019-03-29T19:26:06.173Z,96190.00
2019-03-29T19:28:36.066Z,96194.03
2019-03-29T19:31:06.200Z,96188.39
2019-03-29T19:33:36.291Z,96188.66
2019-03-29T19:36:06.646Z,96189.96
2019-03-29T19:38:36.807Z,96181.67
2019-03-29T19:41:06.784Z,96183.33
2019-03-29T19:43:36.952Z,96185.55
2019-03-29T19:46:07.198Z,96191.95
2019-03-29T19:48:37.193Z,96193.52
2019-03-29T19:51:07.069Z,96191.96
2019-03-29T19:53:36.994Z,96192.97
2019-03-29T19:56:07.143Z,96191.92
2019-03-29T19:58:37.193Z,96195.81
2019-03-29T20:01:07.083Z,96191.91
2019-03-29T20:03:37.082Z,96199.20
2019-03-29T20:06:09.627Z,96186.19
2019-03-29T20:08:39.557Z,96189.28
2019-03-29T20:11:10.526Z,96187.43
2019-03-29T20:13:40.572Z,96192.66
2019-03-29T20:16:10.477Z,96189.14
2019-03-29T20:18:40.409Z,96183.91
2019-03-29T20:21:10.380Z,96182.63
2019-03-29T20:23:40.506Z,96183.64
2019-03-29T20:26:10.443Z,96185.82
2019-03-29T20:28:40.379Z,96183.20
2019-03-29T20:31:10.401Z,96180.75
2019-03-29T20:33:40.314Z,96181.56
2019-03-29T20:36:10.187Z,96178.11
2019-03-29T20:38:40.141Z,96173.84
2019-03-29T20:41:10.268Z,96174.75
2019-03-29T20:43:40.260Z,96176.84
2019-03-29T20:46:12.624Z,96173.77
2019-03-29T20:48:42.517Z,96179.55
2019-03-29T20:51:12.512Z,96174.13
2019-03-29T20:53:43.766Z,96186.38
2019-03-29T20:56:13.786Z,96174.25
2019-03-29T20:58:43.677Z,96185.03
2019-03-29T21:01:15.032Z,96188.09
2019-03-29T21:03:44.907Z,96189.52
2019-03-29T21:06:14.987Z,96191.75
2019-03-29T21:08:44.975Z,96185.95
2019-03-29T21:11:14.935Z,96200.13
2019-03-29T21:13:44.959Z,96199.36
2019-03-29T21:16:14.944Z,96192.41
2019-03-29T21:18:44.967Z,96186.08
2019-03-29T21:21:14.889Z,96187.20
2019-03-29T21:23:47.237Z,96178.43
2019-03-29T21:26:16.398Z,96202.55
2019-03-29T21:28:46.321Z,96190.84
2019-03-29T21:31:16.250Z,96197.09
2019-03-29T21:33:46.162Z,96194.20
2019-03-29T21:36:18.081Z,96191.28
2019-03-29T21:38:47.754Z,96192.90
2019-03-29T21:41:17.943Z,96193.43
2019-03-29T21:43:47.946Z,96200.49
2019-03-29T21:46:18.257Z,96201.42
2019-03-29T21:48:48.201Z,96197.95
2019-03-29T21:51:18.160Z,96190.72
2019-03-29T21:53:48.442Z,96199.86
2019-03-29T21:56:18.416Z,96190.70
2019-03-29T21:58:48.386Z,96186.31
2019-03-29T22:01:18.499Z,96191.45
2019-03-29T22:03:48.428Z,96193.59
2019-03-29T22:06:18.396Z,96185.52
2019-03-29T22:08:48.403Z,96185.53
2019-03-29T22:11:18.379Z,96187.33
2019-03-29T22:13:48.281Z,96190.50
2019-03-29T22:16:18.331Z,96191.45
2019-03-29T22:18:49.681Z,96201.77
2019-03-29T22:21:19.731Z,96187.09
2019-03-29T22:23:49.862Z,96188.52
2019-03-29T22:26:19.797Z,96194.20
2019-03-29T22:28:49.702Z,96194.20
2019-03-29T22:31:19.608Z,96191.56
2019-03-29T22:33:49.719Z,96206.31
2019-03-29T22:36:19.684Z,96204.69
2019-03-29T22:38:49.645Z,96209.62
2019-03-29T22:41:19.578Z,96209.62
2019-03-29T22:43:49.679Z,95947.45
2019-03-29T22:46:19.609Z,96205.61
2019-03-29T22:48:52.403Z,96199.23
2019-03-29T22:51:21.242Z,96199.23
2019-03-29T22:53:51.136Z,96197.77
2019-03-29T22:56:21.097Z,96200.00
2019-03-29T22:58:51.080Z,96200.00
2019-03-29T23:01:20.982Z,96197.31
2019-03-29T23:03:51.169Z,96193.89
2019-03-29T23:06:21.097Z,96198.20
2019-03-29T23:08:51.039Z,96198.20
2019-03-29T23:11:21.155Z,96187.22
2019-03-29T23:13:51.053Z,96184.02
2019-03-29T23:16:20.957Z,96184.79
2019-03-29T23:18:50.912Z,96177.87
2019-03-29T23:21:20.951Z,96177.87
2019-03-29T23:23:53.318Z,96176.18
2019-03-29T23:26:23.250Z,96178.62
2019-03-29T23:28:53.146Z,96172.40
2019-03-29T23:31:23.080Z,96166.20
2019-03-29T23:33:53.047Z,96162.93
2019-03-29T23:36:22.974Z,96162.93
2019-03-29T23:38:52.888Z,96159.73
2019-03-29T23:41:22.820Z,96141.67
2019-03-29T23:43:52.713Z,96152.90
2019-03-29T23:46:22.609Z,96152.90
2019-03-29T23:48:52.545Z,96151.50
2019-03-29T23:51:22.468Z,96151.50
2019-03-29T23:53:52.626Z,96146.32
2019-03-29T23:56:22.591Z,96148.14
2019-03-29T23:58:52.986Z,96149.71
